Terminal Aerodrome Forecast
Issued by NWS

Home | Current Version | Previous Version | Text Only | Print | Product List | Glossary On
Versions: 1 2 3 4 5 6 7 8 9 10 11 12 13 14
036
FTUS42 KILM 180558 CCA
TAFCRE
TAF COR
KCRE 180558Z 1806/1906 00000KT 5SM BR SKC
      TEMPO 1806/1809 2SM BR
     FM181200 20006KT P6SM SCT250
     FM181500 20011G20KT P6SM FEW040 SCT250
     FM182300 20014G23KT P6SM BKN250=

USA.gov is the U.S. government's official web portal to all federal, state and local government web resources and services.